Time;durP1;ratioP1;P1;durP2;ratioP2;P2;SDS_P1;SDS_P2;PMS_P1;PMS_P2;Temp;Humidity;BMP_temperature;BMP_pressure;BME280_temperature;BME280_humidity;BME280_pressure;Samples;Min_cycle;Max_cycle;Signal;HPM_P1;HPM_P2
2023/08/07 00:01:51;;;;;;;9.88;6.05;;;15.30;99.90;;;;;;5070021;28;20024;-53
2023/08/07 00:04:17;;;;;;;7.82;6.10;;;15.30;99.90;;;;;;5069490;28;20051;-52
2023/08/07 00:06:42;;;;;;;10.68;6.45;;;15.40;99.90;;;;;;5069934;28;20079;-53
2023/08/07 00:09:08;;;;;;;12.10;5.78;;;15.40;99.90;;;;;;5068603;28;20520;-55
2023/08/07 00:11:33;;;;;;;6.50;4.90;;;15.40;99.90;;;;;;5069383;28;20036;-54
2023/08/07 00:14:00;;;;;;;11.55;5.07;;;15.40;99.90;;;;;;5065788;28;20509;-53
2023/08/07 00:16:26;;;;;;;7.03;5.10;;;15.40;99.90;;;;;;5068898;28;20240;-54
2023/08/07 00:18:55;;;;;;;4.85;4.50;;;15.40;99.90;;;;;;5069344;28;20046;-53
2023/08/07 00:21:21;;;;;;;7.63;5.28;;;15.40;99.90;;;;;;5069571;28;20036;-52
2023/08/07 00:23:47;;;;;;;;;;;15.40;99.90;;;;;;5069768;28;20588;-55
2023/08/07 00:26:13;;;;;;;5.88;5.00;;;15.40;99.90;;;;;;5069340;28;20010;-53
2023/08/07 00:28:38;;;;;;;6.00;4.53;;;15.40;99.90;;;;;;5070533;28;20037;-55
2023/08/07 00:31:04;;;;;;;6.15;4.68;;;15.40;99.90;;;;;;5074020;28;20066;-52
2023/08/07 00:33:29;;;;;;;4.95;3.70;;;15.40;99.90;;;;;;5072608;28;20410;-54
2023/08/07 00:35:55;;;;;;;6.65;3.97;;;15.40;99.90;;;;;;5069697;28;20024;-54
2023/08/07 00:38:20;;;;;;;4.28;3.85;;;15.40;99.90;;;;;;5072802;28;20493;-55
2023/08/07 00:40:46;;;;;;;7.10;4.53;;;15.40;99.90;;;;;;5073107;28;20056;-54
2023/08/07 00:43:11;;;;;;;3.90;3.47;;;15.40;99.90;;;;;;5072959;28;20067;-52
2023/08/07 00:45:42;;;;;;;6.20;3.90;;;15.30;99.90;;;;;;5073680;28;20040;-52
2023/08/07 00:48:08;;;;;;;5.07;4.07;;;15.40;99.90;;;;;;5073060;28;20051;-52
2023/08/07 00:50:34;;;;;;;6.03;4.30;;;15.40;99.90;;;;;;5053507;28;20289;-52
2023/08/07 00:53:00;;;;;;;7.10;4.38;;;15.30;99.90;;;;;;5063911;28;20039;-53
2023/08/07 00:55:26;;;;;;;4.80;3.97;;;15.40;99.90;;;;;;5073278;28;20051;-54
2023/08/07 00:57:52;;;;;;;4.93;4.30;;;15.30;99.90;;;;;;5072627;28;20406;-52
2023/08/07 01:00:20;;;;;;;5.68;3.60;;;15.40;99.90;;;;;;5073015;28;20112;-53
2023/08/07 01:02:48;;;;;;;4.75;3.80;;;15.30;99.90;;;;;;5073222;28;20041;-53
2023/08/07 01:05:14;;;;;;;5.15;3.58;;;15.40;99.90;;;;;;5073502;28;20401;-53
2023/08/07 01:07:40;;;;;;;5.63;3.38;;;15.30;99.90;;;;;;5072856;28;20028;-54
2023/08/07 01:10:06;;;;;;;3.58;3.20;;;15.30;99.90;;;;;;5073069;28;20045;-53
2023/08/07 01:12:42;;;;;;;3.53;3.13;;;15.40;99.90;;;;;;5072802;28;20033;-53
2023/08/07 01:15:14;;;;;;;3.95;2.95;;;15.30;99.90;;;;;;5067323;28;20102;-53
2023/08/07 01:17:41;;;;;;;4.93;3.78;;;15.30;99.90;;;;;;5072596;28;20032;-55
2023/08/07 01:20:08;;;;;;;3.28;2.97;;;15.30;99.90;;;;;;5072374;28;20070;-54
2023/08/07 01:22:33;;;;;;;4.47;2.95;;;15.40;99.90;;;;;;5071625;28;20487;-54
2023/08/07 01:24:59;;;;;;;5.38;3.00;;;15.30;99.90;;;;;;5066138;28;20078;-54
2023/08/07 01:27:46;;;;;;;4.28;2.90;;;15.30;99.90;;;;;;5070997;28;20115;-52
2023/08/07 01:30:40;;;;;;;6.50;3.05;;;15.30;99.90;;;;;;5072339;28;20097;-52
2023/08/07 01:33:32;;;;;;;7.70;2.50;;;15.30;99.90;;;;;;5072712;28;20036;-53
2023/08/07 01:36:00;;;;;;;5.57;2.70;;;15.30;99.90;;;;;;5067002;28;20072;-54
2023/08/07 01:38:28;;;;;;;5.53;2.70;;;15.20;99.90;;;;;;5071773;28;20120;-52
2023/08/07 01:40:54;;;;;;;5.85;3.22;;;15.20;99.90;;;;;;5071956;28;20036;-53
2023/08/07 01:43:20;;;;;;;4.72;3.22;;;15.10;99.90;;;;;;5072305;28;20040;-54
2023/08/07 01:45:46;;;;;;;4.20;2.83;;;15.10;99.90;;;;;;5072189;28;20037;-52
2023/08/07 01:48:11;;;;;;;4.13;2.58;;;15.10;99.90;;;;;;5071806;28;20409;-55
2023/08/07 01:50:39;;;;;;;5.60;2.90;;;15.10;99.90;;;;;;5070768;28;20045;-54
2023/08/07 01:53:05;;;;;;;6.43;3.20;;;15.10;99.90;;;;;;5072202;28;20124;-52
2023/08/07 01:55:31;;;;;;;4.88;3.08;;;15.10;99.90;;;;;;5071568;28;20032;-53
2023/08/07 01:57:57;;;;;;;4.60;2.97;;;15.10;99.90;;;;;;5071824;28;20032;-52
2023/08/07 02:00:23;;;;;;;5.13;2.65;;;15.10;99.90;;;;;;5071995;28;20489;-53
2023/08/07 02:02:49;;;;;;;4.90;2.67;;;15.10;99.90;;;;;;5072641;28;20045;-51
2023/08/07 02:05:15;;;;;;;7.80;2.92;;;15.00;99.90;;;;;;5071861;28;20067;-53
2023/08/07 02:07:42;;;;;;;7.53;2.20;;;15.00;99.90;;;;;;5071840;28;20111;-52
2023/08/07 02:10:08;;;;;;;4.82;2.10;;;15.00;99.90;;;;;;5071495;28;20454;-53
2023/08/07 02:12:33;;;;;;;11.95;2.30;;;15.00;99.90;;;;;;5072001;28;20051;-52
2023/08/07 02:14:59;;;;;;;9.73;2.08;;;15.00;99.90;;;;;;5070526;28;20454;-53
2023/08/07 02:17:25;;;;;;;;;;;15.00;99.90;;;;;;5071978;28;20408;-52
2023/08/07 02:19:51;;;;;;;4.20;2.15;;;15.00;99.90;;;;;;5071668;28;19916;-52
2023/08/07 02:22:16;;;;;;;9.27;2.55;;;15.00;99.90;;;;;;5071575;28;20032;-55
2023/08/07 02:24:42;;;;;;;10.40;2.15;;;15.00;99.90;;;;;;5071041;28;20037;-52
2023/08/07 02:27:08;;;;;;;6.93;2.10;;;14.90;99.90;;;;;;5071493;28;20590;-56
2023/08/07 02:29:34;;;;;;;4.95;2.00;;;14.90;99.90;;;;;;5071317;28;20041;-52
2023/08/07 02:32:03;;;;;;;14.35;2.13;;;14.90;99.90;;;;;;5071500;28;20040;-53
2023/08/07 02:34:31;;;;;;;14.43;2.42;;;14.80;99.90;;;;;;5070959;28;20043;-53
2023/08/07 02:37:00;;;;;;;7.05;2.15;;;14.80;99.90;;;;;;5070042;28;20075;-55
2023/08/07 02:39:26;;;;;;;10.77;2.05;;;14.80;99.90;;;;;;5069072;28;20478;-52
2023/08/07 02:41:52;;;;;;;4.47;1.73;;;14.70;99.90;;;;;;5070239;28;20111;-55
2023/08/07 02:44:18;;;;;;;9.88;2.88;;;14.70;99.90;;;;;;5070282;28;20072;-53
2023/08/07 02:46:43;;;;;;;;;;;14.70;99.90;;;;;;5071580;28;20109;-54
2023/08/07 02:49:09;;;;;;;7.65;1.60;;;14.70;99.90;;;;;;5070611;28;20417;-52
2023/08/07 02:51:35;;;;;;;11.98;2.20;;;14.70;99.90;;;;;;5069982;28;20516;-53
2023/08/07 02:54:00;;;;;;;7.30;1.58;;;14.70;99.90;;;;;;5070286;28;20112;-57
2023/08/07 02:56:26;;;;;;;8.65;2.65;;;14.60;99.90;;;;;;5069658;28;20078;-54
2023/08/07 02:58:51;;;;;;;10.68;2.22;;;14.60;99.90;;;;;;5069738;28;20060;-52
2023/08/07 03:01:17;;;;;;;6.82;1.52;;;14.60;99.90;;;;;;5070556;28;20032;-52
2023/08/07 03:03:43;;;;;;;6.13;1.85;;;14.60;99.90;;;;;;5063508;28;20036;-53
2023/08/07 03:06:08;;;;;;;19.65;2.78;;;14.50;99.90;;;;;;5070709;28;20124;-55
2023/08/07 03:08:34;;;;;;;9.05;1.88;;;14.50;99.90;;;;;;5070084;28;20029;-52
2023/08/07 03:11:00;;;;;;;7.55;1.60;;;14.50;99.90;;;;;;5070948;28;20570;-53
2023/08/07 03:13:26;;;;;;;9.95;1.60;;;14.40;99.90;;;;;;5070619;28;20041;-53
2023/08/07 03:15:59;;;;;;;11.45;1.88;;;14.40;99.90;;;;;;5070594;28;20032;-52
2023/08/07 03:18:25;;;;;;;9.40;1.73;;;14.40;99.90;;;;;;5070224;28;20059;-55
2023/08/07 03:20:50;;;;;;;12.10;2.00;;;14.40;99.90;;;;;;5070321;28;20146;-53
2023/08/07 03:23:16;;;;;;;12.02;2.50;;;14.40;99.90;;;;;;5069983;28;20044;-52
2023/08/07 03:25:42;;;;;;;8.45;1.55;;;14.40;99.90;;;;;;5070275;28;20466;-53
2023/08/07 03:28:07;;;;;;;12.40;2.53;;;14.40;99.90;;;;;;5070150;28;20051;-54
2023/08/07 03:30:33;;;;;;;10.93;2.05;;;14.40;99.90;;;;;;5070140;28;20041;-54
2023/08/07 03:32:58;;;;;;;12.70;1.85;;;14.50;99.90;;;;;;5070320;28;20043;-52
2023/08/07 03:35:24;;;;;;;7.47;2.03;;;14.50;99.90;;;;;;5069943;28;20032;-56
2023/08/07 03:37:49;;;;;;;11.95;1.80;;;14.50;99.90;;;;;;5069322;28;20024;-53
2023/08/07 03:40:15;;;;;;;6.28;1.35;;;14.50;99.90;;;;;;5067116;28;20028;-55
2023/08/07 03:42:40;;;;;;;15.07;2.45;;;14.50;99.90;;;;;;5070268;28;20040;-52
2023/08/07 03:45:07;;;;;;;10.40;2.15;;;14.50;99.90;;;;;;5070032;28;20043;-53
2023/08/07 03:47:32;;;;;;;11.55;1.30;;;14.50;99.90;;;;;;5069687;28;20048;-52
2023/08/07 03:49:58;;;;;;;11.07;1.48;;;14.40;99.90;;;;;;5069958;28;20036;-53
2023/08/07 03:52:23;;;;;;;10.77;1.60;;;14.40;99.90;;;;;;5069259;28;20047;-53
2023/08/07 03:54:49;;;;;;;13.02;1.80;;;14.40;99.90;;;;;;5070184;28;20032;-56
2023/08/07 03:57:14;;;;;;;9.95;1.60;;;14.40;99.90;;;;;;5068341;28;20150;-52
2023/08/07 03:59:40;;;;;;;2.78;0.95;;;14.40;99.90;;;;;;5069877;28;20478;-52
2023/08/07 04:02:06;;;;;;;9.40;1.40;;;14.30;99.90;;;;;;5069247;28;20068;-53
2023/08/07 04:04:31;;;;;;;16.80;2.88;;;14.30;99.90;;;;;;5068895;28;20052;-54
2023/08/07 04:06:57;;;;;;;9.88;2.05;;;14.30;99.90;;;;;;5069725;28;20036;-53
2023/08/07 04:09:22;;;;;;;14.25;1.70;;;14.30;99.90;;;;;;5070184;28;20041;-52
2023/08/07 04:11:48;;;;;;;8.65;1.80;;;14.30;99.90;;;;;;5069952;28;20454;-55
2023/08/07 04:14:13;;;;;;;6.18;1.20;;;14.30;99.90;;;;;;5069896;28;20481;-54
2023/08/07 04:16:39;;;;;;;7.75;1.52;;;14.30;99.90;;;;;;5069437;28;20184;-53
2023/08/07 04:19:07;;;;;;;15.73;1.60;;;14.30;99.90;;;;;;5070060;28;20409;-57
2023/08/07 04:21:33;;;;;;;14.73;1.95;;;14.30;99.90;;;;;;5068739;28;20044;-58
2023/08/07 04:24:00;;;;;;;13.82;2.45;;;14.30;99.90;;;;;;5069920;28;20145;-58
2023/08/07 04:26:26;;;;;;;12.50;2.55;;;14.40;99.90;;;;;;5069315;28;20052;-57
2023/08/07 04:28:51;;;;;;;;;;;14.40;99.90;;;;;;5070177;28;20047;-54
2023/08/07 04:31:17;;;;;;;12.10;2.08;;;14.40;99.90;;;;;;5069510;28;19916;-57
2023/08/07 04:33:43;;;;;;;9.60;1.85;;;14.50;99.90;;;;;;5070028;28;20051;-58
2023/08/07 04:36:08;;;;;;;8.15;1.27;;;14.50;99.90;;;;;;5069264;28;20044;-56
2023/08/07 04:38:34;;;;;;;11.05;1.42;;;14.50;99.90;;;;;;5068999;28;20093;-58
2023/08/07 04:40:59;;;;;;;8.70;1.70;;;14.50;99.90;;;;;;5069386;28;20021;-56
2023/08/07 04:43:25;;;;;;;7.28;1.70;;;14.60;99.90;;;;;;5069543;28;20036;-58
2023/08/07 04:45:51;;;;;;;7.80;1.65;;;14.60;99.90;;;;;;5068780;28;20037;-57
2023/08/07 04:48:17;;;;;;;7.20;1.98;;;14.70;99.90;;;;;;5067286;28;20045;-58
2023/08/07 04:50:43;;;;;;;8.63;1.65;;;14.70;99.90;;;;;;5067751;28;20051;-57
2023/08/07 04:53:09;;;;;;;7.22;1.73;;;14.70;99.90;;;;;;5068493;28;20040;-58
2023/08/07 04:55:34;;;;;;;5.90;1.42;;;14.80;99.90;;;;;;5069438;28;20485;-58
2023/08/07 04:58:00;;;;;;;10.43;1.52;;;14.80;99.90;;;;;;5068238;28;20044;-58
2023/08/07 05:00:27;;;;;;;9.98;1.88;;;14.80;99.90;;;;;;5069433;28;20474;-58
2023/08/07 05:02:53;;;;;;;8.88;1.42;;;14.80;99.90;;;;;;5069250;28;20075;-58
2023/08/07 05:05:20;;;;;;;7.13;2.20;;;14.80;99.90;;;;;;5068699;28;20072;-59
2023/08/07 05:07:47;;;;;;;8.05;1.38;;;14.90;99.90;;;;;;5069082;28;20044;-59
2023/08/07 05:10:12;;;;;;;5.88;1.42;;;14.90;99.90;;;;;;5062669;28;20298;-58
2023/08/07 05:12:38;;;;;;;6.28;1.83;;;14.90;99.90;;;;;;5069105;28;20040;-58
2023/08/07 05:15:04;;;;;;;8.10;1.77;;;15.00;99.90;;;;;;5071335;28;20085;-57
2023/08/07 05:17:31;;;;;;;;;;;15.00;99.90;;;;;;5072836;28;20032;-58
2023/08/07 05:19:56;;;;;;;13.77;2.00;;;15.00;99.90;;;;;;5072228;28;19932;-58
2023/08/07 05:22:22;;;;;;;11.68;2.00;;;15.00;99.90;;;;;;5072269;28;20033;-57
2023/08/07 05:24:50;;;;;;;9.60;1.92;;;15.00;99.90;;;;;;5072978;28;20036;-56
2023/08/07 05:27:16;;;;;;;12.10;2.20;;;15.10;99.90;;;;;;5072201;28;20039;-58
2023/08/07 05:29:45;;;;;;;10.38;2.10;;;15.00;99.90;;;;;;5072445;28;20037;-58
2023/08/07 05:32:14;;;;;;;8.95;2.25;;;15.10;99.90;;;;;;5072106;28;20483;-57
2023/08/07 05:34:40;;;;;;;7.80;2.45;;;15.10;99.90;;;;;;5052830;28;20076;-55
2023/08/07 05:37:07;;;;;;;6.43;2.10;;;15.10;99.90;;;;;;5056652;28;20060;-58
2023/08/07 05:39:34;;;;;;;10.50;2.67;;;15.10;99.90;;;;;;5072134;28;20047;-58
2023/08/07 05:42:00;;;;;;;11.40;2.22;;;15.10;99.90;;;;;;5072055;28;20113;-58
2023/08/07 05:44:25;;;;;;;6.60;2.38;;;15.10;99.90;;;;;;5072347;28;20048;-57
2023/08/07 05:46:51;;;;;;;12.10;1.95;;;15.10;99.90;;;;;;5066724;28;20112;-58
2023/08/07 05:49:16;;;;;;;12.82;2.60;;;15.10;99.90;;;;;;5070982;28;20098;-58
2023/08/07 05:51:42;;;;;;;9.93;2.58;;;15.20;99.90;;;;;;5072206;28;20036;-56
2023/08/07 05:54:08;;;;;;;8.70;2.13;;;15.20;99.90;;;;;;5068511;28;20111;-57
2023/08/07 05:56:33;;;;;;;9.85;2.33;;;15.30;99.90;;;;;;5070616;28;20497;-58
2023/08/07 05:58:59;;;;;;;7.43;2.13;;;15.30;99.90;;;;;;5067667;28;20028;-57
2023/08/07 06:01:30;;;;;;;8.75;2.55;;;15.30;99.90;;;;;;5069812;28;20301;-57
2023/08/07 06:04:00;;;;;;;6.90;1.83;;;15.30;99.90;;;;;;5069425;28;20532;-55
2023/08/07 06:06:28;;;;;;;9.20;1.95;;;15.30;99.90;;;;;;5071381;28;20123;-58
2023/08/07 06:08:54;;;;;;;4.00;1.77;;;15.30;99.90;;;;;;5086545;28;20606;-57
2023/08/07 06:11:20;;;;;;;5.03;1.60;;;15.30;99.90;;;;;;5066202;28;20076;-57
2023/08/07 06:13:45;;;;;;;8.15;2.38;;;15.30;99.90;;;;;;5070736;28;20072;-58
2023/08/07 06:16:11;;;;;;;10.57;3.33;;;15.30;99.90;;;;;;5066102;28;20040;-57
2023/08/07 06:18:37;;;;;;;12.35;2.65;;;15.30;99.90;;;;;;5071480;28;20438;-56
2023/08/07 06:21:06;;;;;;;7.32;2.80;;;15.30;99.90;;;;;;5071928;28;20037;-58
2023/08/07 06:23:32;;;;;;;8.65;2.05;;;15.20;99.90;;;;;;5071960;28;20045;-57
2023/08/07 06:25:58;;;;;;;7.05;2.17;;;15.30;99.90;;;;;;5070171;28;20536;-58
2023/08/07 06:28:23;;;;;;;14.70;2.65;;;15.20;99.90;;;;;;5060956;28;20045;-57
2023/08/07 06:30:49;;;;;;;13.27;3.35;;;15.20;99.90;;;;;;5051425;28;20044;-57
2023/08/07 06:33:14;;;;;;;8.32;1.67;;;15.30;99.90;;;;;;5069088;28;20155;-56
2023/08/07 06:35:42;;;;;;;12.73;2.53;;;15.30;99.90;;;;;;5065355;28;20102;-58
2023/08/07 06:38:08;;;;;;;9.95;2.63;;;15.30;99.90;;;;;;5066834;28;20052;-58
2023/08/07 06:40:35;;;;;;;11.65;1.90;;;15.40;99.90;;;;;;5068377;28;20037;-58
2023/08/07 06:43:00;;;;;;;13.23;2.97;;;15.50;99.90;;;;;;5064866;28;20397;-55
2023/08/07 06:45:26;;;;;;;10.55;3.10;;;15.60;99.90;;;;;;5065129;28;20052;-57
2023/08/07 06:47:52;;;;;;;16.00;3.08;;;15.80;99.90;;;;;;5060298;28;20028;-58
2023/08/07 06:50:17;;;;;;;8.80;2.85;;;15.90;99.90;;;;;;5060894;28;20504;-59
2023/08/07 06:52:43;;;;;;;12.88;3.13;;;16.00;99.90;;;;;;5061087;28;20040;-59
2023/08/07 06:55:09;;;;;;;14.48;2.50;;;16.10;99.90;;;;;;5059907;28;20037;-56
2023/08/07 06:57:34;;;;;;;10.48;2.22;;;16.10;99.90;;;;;;5065440;28;20516;-57
2023/08/07 07:00:00;;;;;;;12.48;2.80;;;16.10;99.90;;;;;;5062339;28;20689;-58
2023/08/07 07:02:26;;;;;;;11.90;1.98;;;16.10;99.90;;;;;;5061906;28;20123;-58
2023/08/07 07:04:51;;;;;;;5.40;1.40;;;16.10;99.90;;;;;;5064498;28;20489;-57
2023/08/07 07:07:17;;;;;;;8.05;1.08;;;16.00;99.90;;;;;;5068669;28;20482;-55
2023/08/07 07:09:42;;;;;;;10.80;1.00;;;15.80;99.90;;;;;;5070385;28;20036;-55
2023/08/07 07:12:08;;;;;;;4.43;1.10;;;15.70;99.90;;;;;;5061233;28;20044;-53
2023/08/07 07:14:34;;;;;;;4.13;1.00;;;15.70;99.90;;;;;;5064013;28;20051;-57
2023/08/07 07:17:00;;;;;;;9.93;1.52;;;15.60;99.90;;;;;;5059090;28;20398;-56
2023/08/07 07:19:26;;;;;;;6.40;1.55;;;15.60;99.90;;;;;;5067929;28;20508;-54
2023/08/07 07:21:51;;;;;;;7.45;1.10;;;15.60;99.90;;;;;;5061986;28;20036;-54
2023/08/07 07:24:20;;;;;;;8.52;1.42;;;15.60;99.90;;;;;;5055076;28;20087;-57
2023/08/07 07:26:46;;;;;;;6.18;2.28;;;15.70;99.90;;;;;;5059744;28;20036;-54
2023/08/07 07:29:11;;;;;;;8.80;2.20;;;15.80;99.90;;;;;;5069884;28;20536;-56
2023/08/07 07:31:37;;;;;;;12.77;2.70;;;16.00;99.90;;;;;;5056826;28;20044;-56
2023/08/07 07:34:02;;;;;;;12.27;2.40;;;16.20;99.90;;;;;;5070530;28;20036;-53
2023/08/07 07:36:29;;;;;;;11.07;2.05;;;16.40;99.90;;;;;;5062720;28;20037;-58
2023/08/07 07:38:54;;;;;;;;;;;16.60;99.90;;;;;;5063114;28;20120;-55
2023/08/07 07:41:21;;;;;;;14.57;3.45;;;16.80;99.90;;;;;;5068719;28;19987;-59
2023/08/07 07:43:47;;;;;;;13.35;1.75;;;16.90;99.90;;;;;;5068645;28;20082;-59
2023/08/07 07:46:13;;;;;;;12.73;2.42;;;17.10;99.90;;;;;;5062752;28;20037;-60
2023/08/07 07:48:38;;;;;;;7.75;2.28;;;17.20;99.90;;;;;;5061789;28;20044;-54
2023/08/07 07:51:04;;;;;;;14.77;2.33;;;17.30;99.90;;;;;;5064825;28;20178;-52
2023/08/07 07:53:30;;;;;;;7.10;2.03;;;17.50;99.90;;;;;;5068016;28;20031;-58
2023/08/07 07:55:56;;;;;;;;;;;17.50;99.90;;;;;;5069883;28;20064;-57
2023/08/07 07:58:23;;;;;;;10.43;2.03;;;17.60;99.90;;;;;;5068297;28;20009;-57
2023/08/07 08:00:48;;;;;;;12.80;2.55;;;17.70;99.90;;;;;;5063732;28;20043;-53
2023/08/07 08:03:14;;;;;;;11.05;2.17;;;17.80;99.90;;;;;;5069499;28;20040;-58
2023/08/07 08:05:40;;;;;;;8.52;1.48;;;17.90;99.90;;;;;;5070520;28;20044;-58
2023/08/07 08:08:07;;;;;;;7.50;0.77;;;18.00;99.90;;;;;;5069154;28;20038;-58
2023/08/07 08:10:34;;;;;;;5.60;1.15;;;17.90;99.90;;;;;;5068001;28;20039;-57
2023/08/07 08:13:00;;;;;;;3.42;0.98;;;17.70;99.90;;;;;;5069977;28;20459;-56
2023/08/07 08:15:25;;;;;;;8.65;1.58;;;17.60;99.90;;;;;;5070122;28;20040;-54
2023/08/07 08:17:51;;;;;;;6.65;1.75;;;17.50;99.90;;;;;;5069733;28;20040;-52
2023/08/07 08:20:19;;;;;;;7.30;2.13;;;17.30;99.90;;;;;;5070073;28;20072;-57
2023/08/07 08:22:46;;;;;;;5.40;1.67;;;17.00;99.90;;;;;;5069858;28;20078;-58
2023/08/07 08:25:12;;;;;;;5.28;1.20;;;16.80;99.90;;;;;;5068187;28;20094;-56
2023/08/07 08:27:38;;;;;;;6.65;1.40;;;16.60;99.90;;;;;;5069807;28;20191;-53
2023/08/07 08:30:04;;;;;;;6.70;1.75;;;16.50;99.90;;;;;;5070283;28;20379;-53
2023/08/07 08:32:30;;;;;;;6.70;1.33;;;16.40;99.90;;;;;;5050533;28;20041;-55
2023/08/07 08:34:56;;;;;;;2.92;1.30;;;16.40;99.90;;;;;;5049922;28;20083;-53
2023/08/07 08:37:21;;;;;;;4.28;1.00;;;16.40;99.90;;;;;;5060571;28;20394;-56
2023/08/07 08:39:47;;;;;;;5.70;1.38;;;16.40;99.90;;;;;;5069406;28;20039;-57
2023/08/07 08:42:14;;;;;;;5.93;1.45;;;16.50;99.90;;;;;;5069913;28;20047;-54
2023/08/07 08:44:40;;;;;;;6.35;1.05;;;16.60;99.90;;;;;;5069851;28;20048;-56
2023/08/07 08:47:06;;;;;;;;;;;16.80;99.90;;;;;;5064619;28;20033;-53
2023/08/07 08:49:37;;;;;;;7.38;0.80;;;17.00;99.90;;;;;;5062823;28;20343;-54
2023/08/07 08:52:04;;;;;;;6.15;1.30;;;17.10;99.90;;;;;;5071407;28;20166;-56
2023/08/07 08:54:30;;;;;;;4.80;1.10;;;17.30;99.90;;;;;;5072226;28;20036;-54
2023/08/07 08:56:59;;;;;;;6.90;1.55;;;17.60;99.90;;;;;;5071984;28;20107;-54
2023/08/07 08:59:25;;;;;;;8.40;1.92;;;17.70;99.90;;;;;;5072678;28;20489;-57
2023/08/07 09:01:54;;;;;;;10.18;2.65;;;18.00;99.90;;;;;;5072852;28;20066;-57
2023/08/07 09:04:20;;;;;;;11.93;1.55;;;18.20;99.90;;;;;;5073752;28;20306;-54
2023/08/07 09:06:47;;;;;;;4.25;1.27;;;18.10;99.90;;;;;;5073075;28;20040;-53
2023/08/07 09:09:14;;;;;;;5.70;1.13;;;17.90;99.90;;;;;;5073087;28;20055;-54
2023/08/07 09:11:44;;;;;;;6.00;1.10;;;17.50;99.90;;;;;;5073346;28;20040;-54
2023/08/07 09:14:15;;;;;;;3.30;1.10;;;17.20;99.90;;;;;;5073081;28;20492;-52
2023/08/07 09:16:40;;;;;;;6.32;1.38;;;17.10;99.90;;;;;;5072939;28;20303;-54
2023/08/07 09:19:06;;;;;;;5.97;1.15;;;17.00;99.90;;;;;;5071726;28;20043;-53
2023/08/07 09:21:32;;;;;;;9.35;1.75;;;16.90;99.90;;;;;;5072465;28;20414;-56
2023/08/07 09:23:58;;;;;;;7.75;0.88;;;16.90;99.90;;;;;;5073295;28;20047;-54
2023/08/07 09:26:24;;;;;;;7.35;2.22;;;16.90;99.90;;;;;;5073176;28;20124;-57
2023/08/07 09:28:54;;;;;;;6.80;1.30;;;17.10;99.90;;;;;;5072705;28;20036;-57
2023/08/07 09:31:26;;;;;;;12.18;1.92;;;17.20;99.90;;;;;;5072841;28;20044;-57
2023/08/07 09:33:52;;;;;;;7.00;1.60;;;17.40;99.90;;;;;;5070301;28;20052;-56
2023/08/07 09:36:18;;;;;;;9.30;1.95;;;17.70;99.90;;;;;;5072320;28;20048;-57
2023/08/07 09:38:49;;;;;;;9.82;1.90;;;17.80;99.90;;;;;;5063785;28;20126;-55
2023/08/07 09:41:17;;;;;;;7.32;1.67;;;18.00;99.90;;;;;;5071487;28;20490;-56
2023/08/07 09:43:43;;;;;;;19.48;2.63;;;18.10;99.90;;;;;;5070510;28;20048;-57
2023/08/07 09:46:09;;;;;;;15.93;2.65;;;18.20;99.90;;;;;;5072405;28;20565;-57
2023/08/07 09:48:43;;;;;;;7.07;2.25;;;18.30;99.90;;;;;;5071268;28;20045;-55
2023/08/07 09:51:09;;;;;;;6.32;1.70;;;18.30;99.90;;;;;;5071444;28;20527;-57
2023/08/07 09:53:35;;;;;;;;;;;18.40;99.90;;;;;;5069250;28;20048;-57
2023/08/07 09:56:01;;;;;;;12.57;2.63;;;18.40;99.90;;;;;;5069917;28;20312;-54
2023/08/07 09:58:28;;;;;;;8.65;2.28;;;18.50;99.90;;;;;;5070992;28;20048;-57
2023/08/07 10:00:55;;;;;;;6.03;1.92;;;18.70;99.90;;;;;;5072126;28;20056;-55
2023/08/07 10:03:22;;;;;;;8.73;1.83;;;18.80;99.90;;;;;;5057563;28;20048;-54
2023/08/07 10:05:48;;;;;;;6.50;1.20;;;18.90;99.90;;;;;;5057326;28;20039;-57
2023/08/07 10:08:14;;;;;;;5.13;1.40;;;19.10;99.90;;;;;;5069671;28;20053;-58
2023/08/07 10:10:40;;;;;;;6.80;1.67;;;19.20;99.90;;;;;;5069532;28;20132;-57
2023/08/07 10:13:06;;;;;;;7.18;1.10;;;19.10;99.90;;;;;;5060811;28;20588;-57
2023/08/07 10:15:34;;;;;;;14.43;1.77;;;19.10;99.90;;;;;;5068217;28;20528;-57
2023/08/07 10:18:00;;;;;;;3.45;0.80;;;19.10;99.90;;;;;;5055898;28;20119;-58
2023/08/07 10:20:28;;;;;;;7.60;1.38;;;19.00;99.90;;;;;;5065173;28;20155;-56
2023/08/07 10:22:59;;;;;;;4.60;1.17;;;18.90;99.90;;;;;;5071413;28;20057;-59
2023/08/07 10:25:27;;;;;;;4.80;1.10;;;18.90;99.90;;;;;;5071892;28;20055;-59
2023/08/07 10:27:55;;;;;;;8.30;1.40;;;19.00;99.90;;;;;;5071024;28;20514;-57
2023/08/07 10:30:22;;;;;;;7.85;1.50;;;19.20;99.90;;;;;;5070473;28;20048;-57
2023/08/07 10:32:48;;;;;;;4.80;1.45;;;19.40;99.90;;;;;;5071543;28;20036;-55
2023/08/07 10:35:29;;;;;;;;;;;19.50;99.90;;;;;;5071632;28;20047;-54
2023/08/07 10:37:54;;;;;;;8.48;1.48;;;19.50;99.90;;;;;;5062416;28;19917;-58
2023/08/07 10:40:21;;;;;;;10.57;1.10;;;19.50;99.90;;;;;;5059104;28;20448;-59
2023/08/07 10:43:12;;;;;;;8.60;1.45;;;19.50;99.90;;;;;;5066980;28;20044;-58
2023/08/07 10:45:38;;;;;;;6.45;1.60;;;19.40;99.90;;;;;;5063255;28;20090;-57
2023/08/07 10:48:07;;;;;;;6.53;1.48;;;19.30;99.90;;;;;;5060904;28;20500;-58
2023/08/07 10:50:35;;;;;;;7.80;1.92;;;19.20;99.90;;;;;;5063535;28;20386;-56
2023/08/07 10:53:04;;;;;;;6.05;1.20;;;19.10;99.90;;;;;;5068967;28;20048;-54
2023/08/07 10:55:48;;;;;;;7.45;1.35;;;19.20;99.90;;;;;;5062341;28;20330;-54
2023/08/07 10:58:31;;;;;;;4.10;0.90;;;19.30;99.90;;;;;;5069890;28;20409;-56
2023/08/07 11:01:27;;;;;;;4.65;1.05;;;19.40;99.90;;;;;;5064398;28;20036;-59
2023/08/07 11:03:57;;;;;;;3.72;0.90;;;19.30;99.90;;;;;;5067357;28;20032;-56
2023/08/07 11:06:31;;;;;;;6.43;1.00;;;19.20;99.90;;;;;;5071332;28;20520;-58
2023/08/07 11:08:58;;;;;;;5.72;1.38;;;19.20;99.90;;;;;;5068710;28;20508;-57
2023/08/07 11:11:24;;;;;;;4.75;1.27;;;19.10;99.90;;;;;;5070321;28;20036;-58
2023/08/07 11:13:50;;;;;;;9.45;1.23;;;19.10;99.90;;;;;;5067290;28;20042;-57
2023/08/07 11:16:15;;;;;;;;;;;19.30;99.90;;;;;;5072367;28;20039;-57
2023/08/07 11:18:42;;;;;;;4.55;1.02;;;19.60;99.90;;;;;;5070834;28;19916;-55
2023/08/07 11:21:11;;;;;;;2.83;0.60;;;19.80;99.90;;;;;;5069596;28;20116;-57
2023/08/07 11:23:40;;;;;;;3.65;0.95;;;20.00;99.90;;;;;;5070478;28;20398;-57
2023/08/07 11:26:07;;;;;;;7.43;1.00;;;20.00;99.90;;;;;;5069132;28;20063;-56
2023/08/07 11:28:33;;;;;;;7.97;1.13;;;20.00;99.90;;;;;;5059004;28;20409;-56
2023/08/07 11:31:00;;;;;;;3.17;0.82;;;19.80;99.90;;;;;;5061940;28;20047;-57
2023/08/07 11:33:26;;;;;;;4.63;0.63;;;19.70;99.90;;;;;;5070407;28;20051;-58
2023/08/07 11:35:52;;;;;;;7.13;0.80;;;19.50;99.90;;;;;;5070386;28;20033;-56
2023/08/07 11:38:35;;;;;;;8.23;1.35;;;19.30;99.90;;;;;;5070506;28;20039;-54
2023/08/07 11:41:06;;;;;;;4.47;0.73;;;19.20;99.90;;;;;;5062560;28;20067;-56
2023/08/07 11:43:35;;;;;;;4.82;1.20;;;19.10;99.90;;;;;;5052625;28;20037;-55
2023/08/07 11:46:05;;;;;;;6.30;1.25;;;19.00;99.90;;;;;;5050517;28;20093;-56
2023/08/07 11:48:33;;;;;;;6.88;1.52;;;19.00;99.90;;;;;;5054591;28;20036;-58
2023/08/07 11:51:00;;;;;;;4.70;1.50;;;19.10;99.90;;;;;;5070043;28;20509;-58
2023/08/07 11:53:27;;;;;;;5.72;1.30;;;19.20;99.90;;;;;;5069024;28;20040;-57
2023/08/07 11:55:56;;;;;;;7.05;0.75;;;19.20;99.90;;;;;;5070643;28;20422;-57
2023/08/07 11:58:24;;;;;;;6.75;0.68;;;19.10;99.90;;;;;;5070179;28;20094;-58
2023/08/07 12:00:50;;;;;;;3.35;0.82;;;19.00;99.90;;;;;;5069565;28;20116;-58
2023/08/07 12:03:33;;;;;;;3.22;1.05;;;19.10;99.90;;;;;;5065641;28;20589;-57
2023/08/07 12:06:02;;;;;;;5.65;1.50;;;19.30;99.90;;;;;;5059604;28;20954;-57
2023/08/07 12:08:39;;;;;;;3.83;0.88;;;19.50;99.90;;;;;;5071493;28;20040;-57
2023/08/07 12:11:10;;;;;;;3.08;0.50;;;19.50;99.90;;;;;;5069052;28;20041;-58
2023/08/07 12:13:43;;;;;;;3.42;0.77;;;19.50;99.90;;;;;;5072711;28;20032;-59
2023/08/07 12:16:09;;;;;;;3.17;0.68;;;19.40;99.90;;;;;;5069194;28;20043;-59
2023/08/07 12:18:37;;;;;;;3.95;1.13;;;19.40;99.90;;;;;;5071893;28;20044;-55
2023/08/07 12:21:07;;;;;;;5.30;0.88;;;19.40;99.90;;;;;;5068763;28;20037;-57
2023/08/07 12:23:34;;;;;;;7.50;0.95;;;19.40;99.90;;;;;;5070416;28;20046;-57
2023/08/07 12:26:01;;;;;;;6.53;0.75;;;19.40;99.90;;;;;;5073602;28;20040;-56
2023/08/07 12:28:26;;;;;;;5.13;1.20;;;19.30;99.90;;;;;;5074036;28;20093;-58
2023/08/07 12:30:52;;;;;;;5.75;1.25;;;19.30;99.90;;;;;;5075296;28;20041;-57
2023/08/07 12:33:18;;;;;;;;;;;19.30;99.90;;;;;;5076789;28;20028;-59
2023/08/07 12:35:44;;;;;;;4.85;1.10;;;19.30;99.90;;;;;;5079755;28;20401;-57
2023/08/07 12:38:10;;;;;;;6.20;1.08;;;19.30;99.90;;;;;;5077387;28;20051;-56
2023/08/07 12:40:36;;;;;;;3.45;0.70;;;19.40;99.90;;;;;;5079718;28;20043;-56
2023/08/07 12:43:02;;;;;;;4.85;0.85;;;19.50;99.90;;;;;;5077147;28;20040;-56
2023/08/07 12:45:28;;;;;;;3.33;0.93;;;19.50;99.90;;;;;;5079706;28;20052;-57
2023/08/07 12:47:54;;;;;;;4.60;1.40;;;19.60;99.90;;;;;;5080050;28;20404;-58